Terminal Aerodrome Forecast
Issued by NWS

Home | Current Version | Previous Version | Text Only | Print | Product List | Glossary On
Versions: 1 2 3 4 5 6 7 8 9 10 11 12 13 14 15
305
FTUS45 KVEF 300520
TAFVGT
TAF
KVGT 300520Z 3006/3106 VRB05KT P6SM SCT250
     FM301800 23014G24KT P6SM SCT250
     FM302000 28024G32KT P6SM SCT250
     FM302300 31033G45KT P6SM SCT150
     FM310300 32024G31KT P6SM SCT150=

USA.gov is the U.S. government's official web portal to all federal, state and local government web resources and services.